Time;durP1;ratioP1;P1;durP2;ratioP2;P2;SDS_P1;SDS_P2;PMS_P1;PMS_P2;Temp;Humidity;BMP_temperature;BMP_pressure;BME280_temperature;BME280_humidity;BME280_pressure;Samples;Min_cycle;Max_cycle;Signal;HPM_P1;HPM_P2
2023/10/08 00:00:49;;;;;;;6.22;2.95;;;18.40;91.60;;;;;;4955469;29;20486;-81
2023/10/08 00:03:15;;;;;;;5.15;2.47;;;18.40;91.60;;;;;;4955313;29;20485;-82
2023/10/08 00:05:41;;;;;;;5.70;3.08;;;18.40;91.60;;;;;;4955390;29;20031;-81
2023/10/08 00:08:09;;;;;;;6.07;2.80;;;18.40;91.60;;;;;;4955275;29;20114;-82
2023/10/08 00:10:37;;;;;;;5.00;2.83;;;18.30;91.60;;;;;;4955455;29;20037;-82
2023/10/08 00:13:03;;;;;;;4.97;2.88;;;18.30;91.60;;;;;;4955219;29;20541;-82
2023/10/08 00:15:30;;;;;;;5.53;2.90;;;18.30;91.60;;;;;;4955192;29;20106;-81
2023/10/08 00:17:58;;;;;;;5.75;2.55;;;18.30;91.60;;;;;;4954965;29;20035;-81
2023/10/08 00:20:35;;;;;;;5.07;2.88;;;18.30;91.60;;;;;;4955025;29;20110;-81
2023/10/08 00:23:07;;;;;;;6.30;2.80;;;18.30;91.60;;;;;;4955063;29;20027;-82
2023/10/08 00:25:34;;;;;;;5.25;2.90;;;18.30;91.60;;;;;;4954885;29;20126;-81
2023/10/08 00:28:01;;;;;;;5.32;2.75;;;18.30;91.60;;;;;;4954822;29;20028;-82
2023/10/08 00:30:27;;;;;;;5.40;2.70;;;18.30;91.60;;;;;;4954973;29;20505;-81
2023/10/08 00:32:53;;;;;;;5.65;2.70;;;18.30;91.70;;;;;;4954853;29;20066;-82
2023/10/08 00:35:20;;;;;;;6.03;3.10;;;18.30;91.70;;;;;;4954807;29;20041;-81
2023/10/08 00:37:47;;;;;;;5.72;2.50;;;18.30;91.70;;;;;;4954731;29;20015;-81
2023/10/08 00:40:21;;;;;;;5.68;2.90;;;18.30;91.70;;;;;;4954071;28;20406;-81
2023/10/08 00:42:47;;;;;;;5.85;2.92;;;18.30;91.60;;;;;;4954287;29;20379;-81
2023/10/08 00:45:16;;;;;;;6.35;2.97;;;18.40;91.60;;;;;;4954799;29;20029;-82
2023/10/08 00:47:46;;;;;;;5.38;2.50;;;18.50;91.60;;;;;;4955732;28;20031;-81
2023/10/08 00:50:20;;;;;;;5.68;2.90;;;18.40;91.50;;;;;;4954340;29;20556;-82
2023/10/08 00:53:10;;;;;;;4.85;2.55;;;18.30;91.50;;;;;;4954549;29;20413;-82
2023/10/08 00:55:36;;;;;;;5.20;2.60;;;18.40;91.60;;;;;;4954381;29;20027;-81
2023/10/08 00:58:09;;;;;;;6.88;3.28;;;18.40;91.60;;;;;;4954138;29;20402;-82
2023/10/08 01:00:40;;;;;;;6.13;2.70;;;18.40;91.60;;;;;;4955504;28;20051;-82
2023/10/08 01:03:14;;;;;;;6.00;2.72;;;18.40;91.60;;;;;;4954432;29;20027;-80
2023/10/08 01:05:47;;;;;;;6.20;2.72;;;18.30;91.60;;;;;;4955558;28;20094;-81
2023/10/08 01:08:17;;;;;;;4.95;2.65;;;18.30;91.60;;;;;;4954106;29;20042;-82
2023/10/08 01:10:46;;;;;;;5.30;2.60;;;18.30;91.60;;;;;;4954177;29;20024;-81
2023/10/08 01:13:15;;;;;;;5.45;2.90;;;18.30;91.70;;;;;;4953951;28;20094;-82
2023/10/08 01:15:41;;;;;;;5.22;2.70;;;18.30;91.70;;;;;;4955207;28;20023;-82
2023/10/08 01:18:14;;;;;;;5.45;2.88;;;18.30;91.70;;;;;;4953972;29;20603;-81
2023/10/08 01:20:52;;;;;;;5.70;2.78;;;18.30;91.70;;;;;;4954209;29;20031;-82
2023/10/08 01:23:20;;;;;;;5.47;2.78;;;18.30;91.70;;;;;;4954173;29;20023;-82
2023/10/08 01:28:31;;;;;;;5.47;2.85;;;18.30;91.70;;;;;;4955077;29;20034;-81
2023/10/08 01:31:00;;;;;;;6.22;2.95;;;18.30;91.70;;;;;;4953917;29;20114;-82
2023/10/08 01:33:50;;;;;;;5.00;2.50;;;18.30;91.70;;;;;;4954929;28;20501;-81
2023/10/08 01:36:12;;;;;;;8.35;2.90;;;18.30;91.70;;;;;;4954714;28;20043;-81
2023/10/08 01:38:38;;;;;;;5.88;2.70;;;18.30;91.70;;;;;;4953611;29;20023;-81
2023/10/08 01:41:18;;;;;;;4.55;2.58;;;18.30;91.70;;;;;;4953702;29;20449;-81
2023/10/08 01:43:45;;;;;;;4.50;2.50;;;18.30;91.70;;;;;;4953709;29;20114;-82
2023/10/08 01:46:12;;;;;;;5.68;2.50;;;18.30;91.60;;;;;;4953477;29;20027;-81
2023/10/08 01:48:39;;;;;;;5.07;2.60;;;18.40;91.60;;;;;;4953299;28;20023;-81
2023/10/08 01:51:08;;;;;;;4.50;2.40;;;18.40;91.60;;;;;;4954759;28;20027;-81
2023/10/08 01:53:36;;;;;;;5.45;2.50;;;18.30;91.60;;;;;;4954365;28;20401;-81
2023/10/08 01:56:04;;;;;;;5.80;2.58;;;18.30;91.60;;;;;;4954694;28;20024;-81
2023/10/08 01:58:29;;;;;;;4.63;2.30;;;18.30;91.60;;;;;;4953210;29;20466;-81
2023/10/08 02:00:59;;;;;;;4.20;2.30;;;18.30;91.60;;;;;;4954605;28;20028;-81
2023/10/08 02:03:24;;;;;;;5.13;2.45;;;18.30;91.70;;;;;;4954715;28;20019;-81
2023/10/08 02:05:53;;;;;;;6.25;2.78;;;18.30;91.60;;;;;;4954495;28;20082;-81
2023/10/08 02:08:19;;;;;;;5.22;2.50;;;18.30;91.70;;;;;;4953247;29;20031;-82
2023/10/08 02:10:47;;;;;;;4.88;2.42;;;18.30;91.70;;;;;;4953200;28;20187;-81
2023/10/08 02:13:14;;;;;;;4.63;2.42;;;18.30;91.70;;;;;;4954437;28;20027;-82
2023/10/08 02:15:52;;;;;;;4.82;2.58;;;18.30;91.70;;;;;;4954357;28;20054;-82
2023/10/08 02:18:23;;;;;;;4.68;2.47;;;18.30;91.70;;;;;;4953009;29;20023;-82
2023/10/08 02:20:48;;;;;;;4.80;2.50;;;18.30;91.70;;;;;;4953150;29;20027;-82
2023/10/08 02:23:14;;;;;;;4.80;2.50;;;18.30;91.70;;;;;;4953131;29;20028;-81
2023/10/08 02:25:40;;;;;;;4.65;2.30;;;18.30;91.70;;;;;;4953206;29;20406;-81
2023/10/08 02:28:12;;;;;;;5.55;2.55;;;18.30;91.70;;;;;;4953132;29;20031;-81
2023/10/08 02:30:39;;;;;;;4.35;2.38;;;18.30;91.70;;;;;;4953076;29;20028;-81
2023/10/08 02:33:13;;;;;;;4.47;2.40;;;18.30;91.70;;;;;;4953105;29;20641;-81
2023/10/08 02:35:42;;;;;;;4.30;2.17;;;18.30;91.70;;;;;;4953205;29;20034;-81
2023/10/08 02:38:16;;;;;;;5.22;2.85;;;18.30;91.70;;;;;;4953066;29;20050;-81
2023/10/08 02:40:46;;;;;;;4.72;2.40;;;18.30;91.70;;;;;;4953131;29;20389;-81
2023/10/08 02:43:14;;;;;;;4.45;2.33;;;18.30;91.70;;;;;;4953021;29;20397;-81
2023/10/08 02:45:40;;;;;;;4.70;2.28;;;18.30;91.60;;;;;;4954202;28;20028;-81
2023/10/08 02:48:11;;;;;;;5.13;2.40;;;18.30;91.60;;;;;;4952722;29;20027;-81
2023/10/08 02:50:41;;;;;;;4.90;2.47;;;18.30;91.60;;;;;;4946735;29;20039;-81
2023/10/08 02:53:18;;;;;;;4.05;2.20;;;18.40;91.60;;;;;;4952660;29;20032;-81
2023/10/08 02:55:46;;;;;;;3.80;2.28;;;18.30;91.60;;;;;;4952826;29;20023;-81
2023/10/08 02:58:15;;;;;;;4.70;2.45;;;18.30;91.60;;;;;;4952739;29;20027;-81
2023/10/08 03:00:49;;;;;;;4.10;2.20;;;18.30;91.60;;;;;;4952860;29;20437;-82
2023/10/08 03:03:15;;;;;;;3.42;1.88;;;18.30;91.60;;;;;;4952871;28;20050;-81
2023/10/08 03:05:52;;;;;;;4.32;2.22;;;18.30;91.70;;;;;;4957061;28;20112;-81
2023/10/08 03:08:24;;;;;;;4.88;2.22;;;18.30;91.70;;;;;;4956382;29;20508;-81
2023/10/08 03:11:02;;;;;;;4.20;2.20;;;18.30;91.70;;;;;;4956424;28;20497;-81
2023/10/08 03:13:28;;;;;;;4.18;2.20;;;18.30;91.70;;;;;;4956355;28;20056;-81
2023/10/08 03:18:42;;;;;;;4.85;2.10;;;18.30;91.70;;;;;;4957492;28;20035;-81
2023/10/08 03:21:20;;;;;;;4.55;2.17;;;18.30;91.70;;;;;;4957258;28;20102;-81
2023/10/08 03:23:50;;;;;;;4.63;2.40;;;18.30;91.70;;;;;;4957465;28;20027;-80
2023/10/08 03:26:33;;;;;;;4.13;2.17;;;18.30;91.70;;;;;;4956143;29;20027;-81
2023/10/08 03:29:07;;;;;;;3.70;1.90;;;18.30;91.70;;;;;;4955839;29;20086;-81
2023/10/08 03:34:15;;;;;;;5.32;2.38;;;18.30;91.70;;;;;;4957561;28;20051;-82
2023/10/08 03:36:45;;;;;;;4.15;2.17;;;18.20;91.70;;;;;;4957032;28;20086;-81
2023/10/08 03:39:14;;;;;;;5.22;2.40;;;18.30;91.70;;;;;;4955620;29;20078;-81
2023/10/08 03:41:51;;;;;;;4.85;2.00;;;18.30;91.70;;;;;;4955729;29;20027;-81
2023/10/08 03:44:17;;;;;;;5.03;2.30;;;18.30;91.70;;;;;;4955933;29;20038;-81
2023/10/08 03:46:43;;;;;;;4.53;2.15;;;18.30;91.70;;;;;;4955663;29;20023;-81
2023/10/08 03:51:51;;;;;;;4.28;2.22;;;18.30;91.60;;;;;;4957142;28;20070;-81
2023/10/08 03:54:18;;;;;;;3.38;2.05;;;18.30;91.60;;;;;;4955708;29;20035;-81
2023/10/08 03:56:45;;;;;;;3.95;1.88;;;18.30;91.70;;;;;;4955573;29;20036;-81
2023/10/08 03:59:29;;;;;;;5.03;2.40;;;18.30;91.70;;;;;;4955221;29;20023;-82
2023/10/08 04:02:09;;;;;;;3.70;2.15;;;18.30;91.70;;;;;;4955542;29;20020;-81
2023/10/08 04:04:56;;;;;;;4.53;2.13;;;18.30;91.70;;;;;;4955573;29;20026;-82
2023/10/08 04:12:39;;;;;;;4.55;2.15;;;18.30;91.70;;;;;;4956807;28;20027;-81
2023/10/08 04:15:07;;;;;;;4.50;2.10;;;18.30;91.70;;;;;;4954791;28;20122;-81
2023/10/08 04:17:43;;;;;;;3.28;1.95;;;18.30;91.70;;;;;;4956374;29;20027;-82
2023/10/08 04:22:59;;;;;;;3.97;2.00;;;18.20;91.70;;;;;;4957781;29;20038;-81
2023/10/08 04:25:27;;;;;;;3.70;2.00;;;18.30;91.70;;;;;;4954991;28;20038;-81
2023/10/08 04:27:54;;;;;;;3.75;2.10;;;18.20;91.70;;;;;;4954700;28;20035;-81
2023/10/08 04:30:22;;;;;;;4.40;1.95;;;18.20;91.70;;;;;;4954888;29;20041;-81
2023/10/08 04:32:52;;;;;;;3.45;1.70;;;18.20;91.70;;;;;;4954969;29;20405;-81
2023/10/08 04:35:19;;;;;;;3.17;1.80;;;18.20;91.70;;;;;;4954868;29;20039;-81
2023/10/08 04:37:45;;;;;;;4.32;2.00;;;18.20;91.70;;;;;;4954749;29;20110;-81
2023/10/08 04:40:16;;;;;;;4.13;1.88;;;18.20;91.70;;;;;;4954704;29;20107;-81
2023/10/08 04:42:44;;;;;;;4.60;2.25;;;18.20;91.70;;;;;;4954811;29;20026;-81
2023/10/08 04:45:13;;;;;;;3.03;1.67;;;18.30;91.70;;;;;;4955902;28;20094;-82
2023/10/08 04:47:42;;;;;;;3.65;1.70;;;18.30;91.70;;;;;;4955750;28;20074;-81
2023/10/08 04:50:17;;;;;;;4.47;2.05;;;18.30;91.70;;;;;;4953857;29;20051;-81
2023/10/08 04:52:56;;;;;;;3.72;1.88;;;18.30;91.60;;;;;;4954404;29;20390;-81
2023/10/08 04:55:28;;;;;;;3.33;1.95;;;18.30;91.60;;;;;;4954455;29;20034;-81
2023/10/08 04:57:55;;;;;;;4.55;2.08;;;18.30;91.70;;;;;;4954264;28;20023;-81
2023/10/08 05:00:41;;;;;;;3.63;1.90;;;18.30;91.70;;;;;;4954314;28;20047;-81
2023/10/08 05:03:13;;;;;;;3.10;1.83;;;18.30;91.70;;;;;;4955382;29;20039;-81
2023/10/08 05:05:55;;;;;;;4.30;1.80;;;18.30;91.60;;;;;;4944415;29;20044;-81
2023/10/08 05:08:47;;;;;;;4.18;1.98;;;18.20;91.60;;;;;;4947347;29;20032;-81
2023/10/08 05:11:24;;;;;;;3.38;1.67;;;18.20;91.60;;;;;;4951005;29;20529;-81
2023/10/08 05:14:02;;;;;;;3.80;1.92;;;18.20;91.60;;;;;;4951872;29;20402;-82
2023/10/08 05:16:44;;;;;;;3.08;1.63;;;18.20;91.60;;;;;;4951976;29;20027;-83
2023/10/08 05:19:47;;;;;;;4.43;1.80;;;18.20;91.70;;;;;;4944338;29;20053;-82
2023/10/08 05:22:18;;;;;;;3.83;1.90;;;18.30;91.70;;;;;;4952562;29;20171;-82
2023/10/08 05:33:59;;;;;;;3.90;1.85;;;18.20;91.70;;;;;;4952700;28;20031;-82
2023/10/08 05:36:18;;;;;;;3.53;1.77;;;18.20;91.70;;;;;;4951888;29;20577;-82
2023/10/08 05:38:49;;;;;;;2.63;1.70;;;18.20;91.70;;;;;;4952295;28;20046;-83
2023/10/08 05:41:27;;;;;;;4.18;1.77;;;18.20;91.70;;;;;;4950975;28;20035;-82
2023/10/08 05:44:14;;;;;;;2.53;1.60;;;18.20;91.70;;;;;;4951452;28;20023;-83
2023/10/08 05:46:51;;;;;;;2.80;1.60;;;18.20;91.70;;;;;;4951088;28;20085;-82
2023/10/08 05:49:36;;;;;;;3.60;1.67;;;18.20;91.70;;;;;;4950701;28;20035;-82
2023/10/08 06:08:11;;;;;;;2.80;1.52;;;18.20;91.70;;;;;;4951736;28;20393;-82
2023/10/08 06:13:29;;;;;;;3.22;1.55;;;18.20;91.70;;;;;;4952106;28;20028;-81
2023/10/08 06:18:27;;;;;;;4.40;1.80;;;18.20;91.70;;;;;;4951540;28;20078;-82
2023/10/08 06:21:00;;;;;;;3.33;1.63;;;18.20;91.70;;;;;;4931058;29;20395;-82
2023/10/08 06:23:29;;;;;;;2.80;1.50;;;18.20;91.70;;;;;;4931470;29;20032;-81
2023/10/08 06:28:38;;;;;;;3.58;1.92;;;18.20;91.70;;;;;;4932603;29;20039;-82
2023/10/08 06:34:03;;;;;;;3.00;1.63;;;18.20;91.70;;;;;;4933275;29;20047;-81
2023/10/08 06:36:31;;;;;;;2.58;1.55;;;18.20;91.70;;;;;;4947521;29;20066;-82
2023/10/08 06:38:56;;;;;;;2.92;1.70;;;18.20;91.70;;;;;;4952361;28;20520;-81
2023/10/08 06:41:28;;;;;;;2.97;1.48;;;18.20;91.70;;;;;;4951515;29;20174;-82
2023/10/08 06:44:03;;;;;;;3.22;1.73;;;18.20;91.70;;;;;;4935710;29;20407;-83
2023/10/08 06:46:32;;;;;;;3.25;1.58;;;18.20;92.00;;;;;;4935322;29;20040;-83
2023/10/08 06:48:58;;;;;;;2.85;1.40;;;18.20;91.70;;;;;;4935320;29;20034;-80
2023/10/08 06:51:25;;;;;;;2.25;1.40;;;18.20;91.70;;;;;;4935530;29;20086;-82
2023/10/08 06:53:51;;;;;;;3.38;1.70;;;18.10;91.60;;;;;;4935328;29;20255;-81
2023/10/08 06:56:19;;;;;;;2.90;1.67;;;18.30;91.60;;;;;;4936095;29;20112;-81
2023/10/08 06:58:49;;;;;;;2.92;1.60;;;18.30;91.60;;;;;;4934697;29;20023;-82
2023/10/08 07:01:21;;;;;;;3.30;1.52;;;18.20;91.80;;;;;;4935065;29;20027;-81
2023/10/08 07:03:50;;;;;;;3.65;1.70;;;18.20;91.60;;;;;;4936332;29;20024;-81
2023/10/08 07:06:16;;;;;;;2.38;1.40;;;18.20;91.60;;;;;;4934993;29;20151;-81
2023/10/08 07:08:46;;;;;;;3.72;1.70;;;18.00;91.60;;;;;;4936388;29;20506;-82
2023/10/08 07:11:12;;;;;;;3.65;1.60;;;18.20;91.70;;;;;;4938677;29;20031;-82
2023/10/08 07:13:39;;;;;;;2.90;1.65;;;18.20;91.70;;;;;;4954354;28;20042;-81
2023/10/08 07:16:06;;;;;;;3.30;1.40;;;18.20;91.70;;;;;;4955814;28;20027;-81
2023/10/08 07:18:33;;;;;;;2.55;1.48;;;18.20;91.70;;;;;;4953433;29;20023;-81
2023/10/08 07:21:11;;;;;;;2.53;1.48;;;18.20;91.70;;;;;;4955407;29;20107;-81
2023/10/08 07:23:53;;;;;;;2.65;1.30;;;18.20;91.70;;;;;;4934757;29;20487;-81
2023/10/08 07:26:23;;;;;;;2.80;1.38;;;18.20;91.70;;;;;;4934253;29;20081;-83
2023/10/08 07:28:51;;;;;;;3.10;1.50;;;18.20;92.00;;;;;;4940110;29;20023;-82
2023/10/08 07:31:21;;;;;;;3.15;1.48;;;18.10;91.70;;;;;;4954011;29;20499;-82
2023/10/08 07:33:55;;;;;;;2.40;1.30;;;18.20;91.70;;;;;;4953385;29;20086;-82
2023/10/08 07:36:21;;;;;;;2.40;1.40;;;18.20;91.70;;;;;;4953933;29;20031;-81
2023/10/08 07:38:46;;;;;;;2.97;1.60;;;18.20;91.70;;;;;;4953222;29;20024;-82
2023/10/08 07:41:14;;;;;;;2.75;1.60;;;18.20;91.70;;;;;;4954024;29;20545;-82
2023/10/08 07:43:41;;;;;;;3.45;1.60;;;18.20;91.70;;;;;;4953381;28;20034;-82
2023/10/08 07:46:07;;;;;;;2.25;1.38;;;18.20;91.80;;;;;;4954195;28;20092;-83
2023/10/08 07:48:33;;;;;;;3.38;1.50;;;18.20;91.70;;;;;;4953062;29;20069;-82
2023/10/08 07:50:58;;;;;;;2.45;1.40;;;18.20;91.70;;;;;;4952445;28;20082;-81
2023/10/08 07:53:25;;;;;;;2.95;1.50;;;18.20;91.60;;;;;;4954659;28;20023;-82
2023/10/08 07:55:51;;;;;;;2.70;1.38;;;18.30;91.60;;;;;;4952980;29;20031;-81
2023/10/08 07:58:18;;;;;;;3.30;1.50;;;18.30;91.60;;;;;;4952907;29;20110;-81
2023/10/08 08:00:53;;;;;;;2.63;1.55;;;18.30;91.60;;;;;;4953857;28;20040;-82
2023/10/08 08:03:20;;;;;;;2.22;1.23;;;18.30;91.60;;;;;;4953144;29;20118;-82
2023/10/08 08:05:52;;;;;;;2.90;1.42;;;18.30;91.60;;;;;;4953794;28;20031;-82
2023/10/08 08:08:18;;;;;;;2.03;1.30;;;18.30;91.60;;;;;;4952529;29;20437;-82
2023/10/08 08:10:44;;;;;;;3.20;1.40;;;18.30;91.60;;;;;;4953133;29;20030;-82
2023/10/08 08:13:10;;;;;;;2.72;1.48;;;18.30;91.60;;;;;;4952676;29;20474;-82
2023/10/08 08:15:41;;;;;;;2.65;1.48;;;18.30;91.60;;;;;;4952853;29;20147;-82
2023/10/08 08:18:07;;;;;;;2.90;1.50;;;18.40;91.60;;;;;;4952794;28;20054;-82
2023/10/08 08:20:38;;;;;;;3.20;1.48;;;18.30;91.60;;;;;;4953021;29;20067;-81
2023/10/08 08:23:08;;;;;;;2.88;1.50;;;18.30;91.50;;;;;;4952440;29;20019;-82
2023/10/08 08:26:06;;;;;;;2.30;1.33;;;18.40;91.50;;;;;;4954010;28;20545;-82
2023/10/08 08:28:32;;;;;;;2.33;1.40;;;18.40;91.50;;;;;;4952095;29;20031;-81
2023/10/08 08:31:04;;;;;;;2.22;1.20;;;18.40;91.50;;;;;;4952471;29;20034;-82
2023/10/08 08:33:52;;;;;;;3.72;1.52;;;18.40;91.40;;;;;;4951930;29;20027;-82
2023/10/08 08:36:16;;;;;;;3.15;1.70;;;18.40;91.40;;;;;;4953866;29;20027;-82
2023/10/08 08:38:43;;;;;;;1.85;1.10;;;18.40;91.40;;;;;;4953013;28;20034;-80
2023/10/08 08:41:12;;;;;;;2.40;1.45;;;18.50;91.50;;;;;;4952359;29;20058;-80
2023/10/08 08:43:43;;;;;;;1.80;1.20;;;18.40;91.50;;;;;;4954137;28;20481;-81
2023/10/08 08:46:12;;;;;;;2.08;1.30;;;18.40;91.50;;;;;;4952649;29;20035;-82
2023/10/08 08:48:40;;;;;;;2.72;1.48;;;18.40;91.50;;;;;;4952273;29;20038;-82
2023/10/08 08:51:09;;;;;;;2.58;1.30;;;18.50;91.50;;;;;;4952222;29;20445;-81
2023/10/08 08:53:36;;;;;;;2.55;1.40;;;18.50;91.40;;;;;;4952254;29;20031;-82
2023/10/08 08:56:12;;;;;;;3.42;1.20;;;18.60;91.30;;;;;;4951814;29;20114;-84
2023/10/08 08:58:38;;;;;;;4.38;1.40;;;18.60;91.10;;;;;;4943569;28;20043;-84
2023/10/08 09:01:09;;;;;;;3.25;1.30;;;18.60;91.00;;;;;;4932215;29;20046;-81
2023/10/08 09:03:34;;;;;;;2.67;1.25;;;18.60;91.00;;;;;;4932016;29;20031;-82
2023/10/08 09:06:00;;;;;;;3.35;1.33;;;18.60;91.00;;;;;;4932835;29;20109;-83
2023/10/08 09:08:33;;;;;;;3.03;1.45;;;18.60;91.00;;;;;;4934579;29;20068;-83
2023/10/08 09:11:04;;;;;;;3.35;1.30;;;18.60;91.10;;;;;;4935622;29;20063;-83
2023/10/08 09:13:30;;;;;;;3.10;1.25;;;18.70;91.20;;;;;;4933956;29;20040;-83
2023/10/08 09:16:15;;;;;;;3.30;1.35;;;18.60;91.20;;;;;;4934384;29;20094;-82
2023/10/08 09:18:45;;;;;;;3.53;1.40;;;18.60;91.20;;;;;;4934268;29;20506;-83
2023/10/08 09:21:13;;;;;;;2.40;1.27;;;18.50;91.20;;;;;;4934680;29;20126;-84
2023/10/08 09:23:43;;;;;;;2.97;1.40;;;18.50;91.30;;;;;;4934246;29;20028;-84
2023/10/08 09:26:10;;;;;;;4.03;1.33;;;18.60;91.30;;;;;;4934567;29;20270;-84
2023/10/08 09:28:38;;;;;;;3.95;1.33;;;18.50;91.30;;;;;;4934116;29;20502;-82
2023/10/08 09:31:06;;;;;;;3.30;1.23;;;18.50;91.30;;;;;;4934299;29;20036;-84
2023/10/08 09:33:31;;;;;;;2.65;1.40;;;18.50;91.30;;;;;;4934390;29;20036;-82
2023/10/08 09:36:02;;;;;;;2.78;1.38;;;18.50;91.30;;;;;;4933986;29;20031;-83
2023/10/08 09:38:30;;;;;;;2.30;1.20;;;18.50;91.30;;;;;;4933768;29;20020;-83
2023/10/08 09:40:56;;;;;;;3.90;1.40;;;18.50;91.30;;;;;;4932636;29;20027;-84
2023/10/08 09:43:22;;;;;;;1.95;1.20;;;18.50;91.30;;;;;;4934085;29;20135;-82
2023/10/08 09:45:56;;;;;;;3.45;1.25;;;18.60;91.30;;;;;;4933956;29;20028;-82
2023/10/08 09:48:25;;;;;;;2.58;1.30;;;18.50;91.30;;;;;;4932380;29;20032;-83
2023/10/08 09:50:53;;;;;;;3.17;1.20;;;18.60;91.20;;;;;;4932763;29;20127;-83
2023/10/08 09:53:28;;;;;;;2.63;1.40;;;18.60;91.20;;;;;;4933422;29;20035;-83
2023/10/08 09:55:56;;;;;;;3.22;1.40;;;18.60;91.20;;;;;;4932368;29;20038;-83
2023/10/08 09:58:27;;;;;;;3.63;1.40;;;18.60;91.20;;;;;;4932063;29;20031;-83
2023/10/08 10:00:56;;;;;;;2.70;1.38;;;18.60;91.20;;;;;;4932105;29;20028;-83
2023/10/08 10:03:22;;;;;;;2.35;1.17;;;18.70;91.20;;;;;;4932627;29;20067;-82
2023/10/08 10:05:52;;;;;;;3.92;1.52;;;18.60;91.10;;;;;;4932507;29;20046;-83
2023/10/08 10:08:20;;;;;;;3.27;1.20;;;18.60;91.10;;;;;;4933491;29;20750;-84
2023/10/08 10:10:47;;;;;;;3.22;1.30;;;18.60;91.10;;;;;;4932298;29;20032;-83
2023/10/08 10:13:15;;;;;;;2.00;1.08;;;18.60;91.20;;;;;;4941659;29;20031;-83
2023/10/08 10:15:42;;;;;;;2.05;1.20;;;18.60;91.20;;;;;;4950653;28;20043;-85
2023/10/08 10:18:29;;;;;;;3.20;1.40;;;18.50;91.20;;;;;;4951516;28;20027;-84
2023/10/08 10:21:00;;;;;;;2.83;1.20;;;18.60;91.30;;;;;;4952150;29;20026;-82
2023/10/08 10:23:43;;;;;;;2.53;1.25;;;18.50;91.30;;;;;;4951383;28;20031;-83
2023/10/08 10:26:31;;;;;;;1.92;1.02;;;18.60;91.30;;;;;;4953634;28;20078;-83
2023/10/08 10:29:14;;;;;;;2.95;1.20;;;18.60;91.30;;;;;;4952855;29;20481;-82
2023/10/08 10:31:49;;;;;;;3.35;1.13;;;18.50;91.30;;;;;;4951931;29;20127;-84
2023/10/08 10:34:19;;;;;;;2.85;1.30;;;18.50;91.30;;;;;;4951533;29;20054;-82
2023/10/08 10:36:55;;;;;;;2.85;1.30;;;18.50;91.30;;;;;;4950818;29;20024;-82
2023/10/08 10:39:29;;;;;;;2.42;1.25;;;18.50;91.30;;;;;;4950727;29;20035;-82
2023/10/08 10:41:57;;;;;;;2.15;1.02;;;18.60;91.30;;;;;;4952018;29;20051;-83
2023/10/08 10:44:24;;;;;;;2.72;1.23;;;18.60;91.30;;;;;;4950286;29;20038;-83
2023/10/08 10:47:22;;;;;;;1.88;1.10;;;18.60;91.20;;;;;;4950571;29;20118;-82
2023/10/08 10:49:54;;;;;;;2.17;1.00;;;18.60;91.20;;;;;;4951550;29;20046;-83
2023/10/08 10:52:31;;;;;;;2.47;1.10;;;18.60;91.20;;;;;;4950649;29;20027;-83
2023/10/08 10:57:54;;;;;;;2.42;1.10;;;18.60;91.10;;;;;;4952010;28;20039;-82
2023/10/08 11:03:02;;;;;;;2.33;1.08;;;18.70;91.10;;;;;;4952186;28;20027;-82
2023/10/08 11:05:36;;;;;;;2.38;1.08;;;18.60;91.00;;;;;;4951008;29;20043;-82
2023/10/08 11:08:06;;;;;;;2.25;1.15;;;18.70;91.00;;;;;;4950627;29;20131;-84
2023/10/08 11:10:33;;;;;;;2.45;1.17;;;18.60;91.00;;;;;;4950479;29;20434;-82
2023/10/08 11:13:02;;;;;;;3.00;1.30;;;18.70;91.00;;;;;;4950704;29;20375;-84
2023/10/08 11:15:40;;;;;;;2.80;1.10;;;18.70;91.10;;;;;;4950725;29;20066;-83
2023/10/08 11:18:10;;;;;;;2.83;1.30;;;18.70;91.10;;;;;;4951596;28;20450;-83
2023/10/08 11:20:44;;;;;;;2.97;1.20;;;18.70;91.00;;;;;;4950630;29;20034;-83
2023/10/08 11:23:19;;;;;;;1.98;0.98;;;18.70;91.00;;;;;;4950562;29;20037;-83
2023/10/08 11:26:04;;;;;;;2.53;1.10;;;18.70;91.00;;;;;;4952090;28;20066;-81
2023/10/08 11:28:34;;;;;;;2.67;1.20;;;18.70;91.00;;;;;;4955313;28;20094;-83
2023/10/08 11:31:20;;;;;;;2.70;1.10;;;18.70;91.00;;;;;;4953588;29;20066;-83
2023/10/08 11:33:55;;;;;;;2.50;1.20;;;18.70;91.00;;;;;;4953853;29;20039;-83
2023/10/08 11:36:27;;;;;;;2.33;1.00;;;18.80;91.00;;;;;;4954249;29;20054;-83
2023/10/08 11:39:06;;;;;;;2.17;1.00;;;18.80;90.90;;;;;;4954159;29;20024;-83
2023/10/08 11:41:49;;;;;;;2.58;0.93;;;18.80;90.90;;;;;;4954358;29;20038;-83
2023/10/08 11:44:19;;;;;;;3.35;1.10;;;18.80;90.80;;;;;;4953487;29;20038;-82
2023/10/08 11:46:45;;;;;;;2.97;1.20;;;18.80;90.80;;;;;;4955507;28;20023;-83
2023/10/08 11:49:17;;;;;;;2.50;1.15;;;18.80;90.90;;;;;;4953681;29;20034;-83
2023/10/08 11:51:44;;;;;;;1.95;0.82;;;18.80;90.90;;;;;;4954077;29;20047;-83
2023/10/08 11:54:14;;;;;;;2.53;1.10;;;18.80;90.90;;;;;;4953236;29;20039;-83
2023/10/08 11:56:40;;;;;;;1.40;0.90;;;18.80;90.90;;;;;;4953404;29;20027;-81
2023/10/08 11:59:08;;;;;;;1.90;1.15;;;18.80;90.90;;;;;;4953174;29;20565;-83
2023/10/08 12:01:35;;;;;;;3.70;1.20;;;18.80;90.90;;;;;;4952834;29;20473;-82
2023/10/08 12:04:04;;;;;;;2.25;1.10;;;18.90;90.90;;;;;;4953094;29;20023;-82
2023/10/08 12:06:30;;;;;;;1.90;1.08;;;18.90;90.80;;;;;;4953809;29;20030;-83
2023/10/08 12:08:58;;;;;;;1.85;1.00;;;18.90;90.80;;;;;;4953075;29;20118;-83
2023/10/08 12:11:31;;;;;;;2.92;1.05;;;18.90;90.70;;;;;;4953806;29;20047;-84
2023/10/08 12:13:58;;;;;;;2.90;1.10;;;18.90;90.80;;;;;;4954591;29;20039;-85
2023/10/08 12:16:29;;;;;;;2.42;1.00;;;18.90;90.70;;;;;;4954261;29;20075;-85
2023/10/08 12:34:29;;;;;;;3.08;1.02;;;18.80;90.90;;;;;;4915166;29;20031;-87
2023/10/08 12:36:55;;;;;;;1.75;1.10;;;18.90;91.00;;;;;;4897264;29;20032;-82
2023/10/08 12:39:25;;;;;;;3.00;1.10;;;18.80;91.00;;;;;;4913000;29;20028;-83
2023/10/08 12:41:53;;;;;;;1.92;0.90;;;18.80;91.00;;;;;;4926267;29;20057;-83
2023/10/08 12:44:18;;;;;;;1.63;1.00;;;18.80;91.00;;;;;;4953192;29;20371;-82
2023/10/08 12:46:48;;;;;;;2.55;1.05;;;18.70;91.00;;;;;;4952839;29;20052;-83
2023/10/08 12:49:14;;;;;;;1.25;0.93;;;18.80;91.00;;;;;;4935845;29;20812;-83
2023/10/08 12:51:41;;;;;;;1.88;1.10;;;18.80;91.00;;;;;;4936191;29;20039;-82
2023/10/08 12:54:07;;;;;;;1.90;0.90;;;18.80;91.00;;;;;;4936667;29;20041;-82
2023/10/08 12:56:48;;;;;;;3.13;1.20;;;18.80;90.90;;;;;;4936329;29;20031;-83
2023/10/08 12:59:23;;;;;;;2.10;0.93;;;18.80;90.90;;;;;;4952795;29;20012;-83
2023/10/08 13:01:51;;;;;;;3.08;1.02;;;18.90;90.90;;;;;;4938791;28;20023;-82
2023/10/08 13:04:25;;;;;;;1.88;0.88;;;18.90;90.80;;;;;;4963863;28;20872;-84
2023/10/08 13:06:51;;;;;;;2.70;1.10;;;18.90;90.80;;;;;;4941229;29;20027;-82
2023/10/08 13:09:17;;;;;;;1.88;1.00;;;18.80;90.70;;;;;;4938069;28;20031;-82
2023/10/08 13:11:43;;;;;;;1.95;0.90;;;18.90;90.80;;;;;;4935306;29;20095;-81
2023/10/08 13:14:08;;;;;;;1.83;1.00;;;18.80;90.80;;;;;;4953040;29;20035;-82
2023/10/08 13:16:37;;;;;;;2.58;0.85;;;18.80;90.80;;;;;;4934624;29;20114;-81
2023/10/08 13:19:03;;;;;;;1.52;0.73;;;18.80;90.90;;;;;;4932921;29;20039;-83
2023/10/08 13:21:29;;;;;;;2.22;1.00;;;18.80;90.90;;;;;;4934297;29;20023;-82
2023/10/08 13:23:59;;;;;;;1.42;0.90;;;18.80;90.90;;;;;;4951524;29;20037;-81
2023/10/08 13:26:30;;;;;;;1.02;0.85;;;18.80;91.00;;;;;;4951181;29;20074;-82
2023/10/08 13:28:56;;;;;;;1.45;0.90;;;18.80;91.00;;;;;;4934182;29;20035;-82
2023/10/08 13:31:23;;;;;;;1.17;0.82;;;18.70;91.00;;;;;;4934113;29;20175;-82
2023/10/08 13:33:52;;;;;;;1.65;0.90;;;18.70;91.00;;;;;;4934416;29;20556;-82
2023/10/08 13:36:18;;;;;;;2.03;1.13;;;18.70;91.00;;;;;;4939686;28;20417;-83
2023/10/08 13:38:46;;;;;;;3.55;1.50;;;18.70;91.00;;;;;;4934011;29;20035;-80
2023/10/08 13:41:14;;;;;;;1.58;0.90;;;18.70;91.00;;;;;;4934196;29;20557;-83
2023/10/08 13:43:41;;;;;;;1.30;0.88;;;18.80;91.00;;;;;;4933996;29;20047;-81
2023/10/08 13:46:12;;;;;;;1.65;0.90;;;18.70;91.00;;;;;;4933979;29;20027;-82
2023/10/08 13:48:38;;;;;;;1.60;0.90;;;18.70;91.00;;;;;;4933277;29;20023;-82
2023/10/08 13:51:09;;;;;;;1.95;1.15;;;18.70;91.00;;;;;;4938263;28;20018;-82
2023/10/08 13:53:36;;;;;;;1.67;0.90;;;18.70;91.00;;;;;;4953518;28;20041;-82
2023/10/08 13:56:04;;;;;;;1.55;0.90;;;18.70;91.00;;;;;;4952447;28;20081;-81
2023/10/08 13:58:30;;;;;;;2.92;0.90;;;18.80;91.00;;;;;;4936292;29;20470;-82
2023/10/08 14:01:13;;;;;;;2.35;0.93;;;18.80;91.00;;;;;;4936627;29;20106;-82
2023/10/08 14:03:41;;;;;;;1.45;0.90;;;18.80;90.90;;;;;;4933637;29;20023;-81
2023/10/08 14:06:08;;;;;;;1.42;0.70;;;18.80;90.90;;;;;;4934075;29;20027;-82
2023/10/08 14:08:33;;;;;;;1.13;0.75;;;18.70;90.90;;;;;;4933513;29;20100;-82
2023/10/08 14:11:02;;;;;;;15.57;2.15;;;18.80;90.90;;;;;;4933838;29;20028;-83
2023/10/08 14:13:32;;;;;;;31.13;3.35;;;18.80;90.80;;;;;;4933880;29;20034;-82
2023/10/08 14:16:08;;;;;;;54.90;4.93;;;18.70;90.00;;;;;;4933696;29;20452;-82
2023/10/08 14:18:42;;;;;;;98.22;9.20;;;18.70;90.10;;;;;;4950809;29;20079;-84